Time;durP1;ratioP1;P1;durP2;ratioP2;P2;SDS_P1;SDS_P2;PMS_P1;PMS_P2;Temp;Humidity;BMP_temperature;BMP_pressure;BME280_temperature;BME280_humidity;BME280_pressure;Samples;Min_cycle;Max_cycle;Signal;HPM_P1;HPM_P2
2023/04/21 00:00:53;;;;;;;23.77;21.58;;;;;;;10.07;81.26;99899.56;10370986;28;20779;-66
2023/04/21 00:05:55;;;;;;;23.15;21.05;;;;;;;10.01;81.73;99889.44;10369160;28;20041;-66
2023/04/21 00:10:56;;;;;;;22.17;20.15;;;;;;;10.05;82.06;99898.88;10370489;28;20049;-65
2023/04/21 00:15:57;;;;;;;22.48;20.38;;;;;;;9.96;82.22;99897.81;10356275;28;20595;-64
2023/04/21 00:20:59;;;;;;;22.13;19.92;;;;;;;10.00;82.17;99906.41;10366997;28;20056;-65
2023/04/21 00:26:01;;;;;;;23.58;21.38;;;;;;;9.92;82.50;99904.34;10356710;28;20443;-66
2023/04/21 00:31:03;;;;;;;21.65;19.55;;;;;;;9.90;82.48;99888.53;10365975;28;20049;-65
2023/04/21 00:36:05;;;;;;;22.88;20.83;;;;;;;9.89;82.31;99892.19;10356573;28;20045;-68
2023/04/21 00:41:06;;;;;;;22.17;20.17;;;;;;;9.83;82.72;99875.88;10365150;28;20045;-67
2023/04/21 00:46:07;;;;;;;23.70;21.30;;;;;;;9.86;82.88;99876.50;10366403;28;20450;-66
2023/04/21 00:51:09;;;;;;;24.73;22.33;;;;;;;9.83;82.48;99879.41;10370963;28;20056;-66
2023/04/21 00:56:10;;;;;;;23.73;21.50;;;;;;;9.79;82.89;99870.00;10370614;28;22079;-67
2023/04/21 01:01:12;;;;;;;25.10;22.67;;;;;;;9.71;82.98;99872.44;10368937;28;20061;-67
2023/04/21 01:06:13;;;;;;;23.58;21.33;;;;;;;9.74;82.43;99866.84;10367910;28;20072;-68
2023/04/21 01:11:15;;;;;;;23.90;21.70;;;;;;;9.73;82.28;99859.88;10370294;28;20049;-68
2023/04/21 01:16:17;;;;;;;25.30;22.88;;;;;;;9.77;82.72;99869.25;10370311;28;20054;-68
2023/04/21 01:21:20;;;;;;;25.65;23.15;;;;;;;9.61;82.94;99855.56;10369800;28;20058;-66
2023/04/21 01:26:22;;;;;;;24.13;21.83;;;;;;;9.67;83.05;99857.72;10356027;28;20119;-66
2023/04/21 01:31:24;;;;;;;24.70;22.27;;;;;;;9.62;83.11;99858.09;10367539;28;20453;-65
2023/04/21 01:36:25;;;;;;;25.10;22.65;;;;;;;9.63;83.11;99853.63;10366694;28;20053;-68
2023/04/21 01:41:26;;;;;;;25.25;22.63;;;;;;;9.59;83.74;99854.84;10368191;28;20174;-68
2023/04/21 01:46:28;;;;;;;25.25;22.75;;;;;;;9.65;83.09;99864.97;10367045;28;20053;-67
2023/04/21 01:51:30;;;;;;;23.75;21.40;;;;;;;9.63;82.80;99859.78;10368097;28;20045;-68
2023/04/21 01:56:31;;;;;;;25.98;23.48;;;;;;;9.63;83.03;99861.59;10364457;28;20456;-66
2023/04/21 02:01:34;;;;;;;24.63;22.25;;;;;;;9.60;83.13;99861.88;10365671;28;20057;-65
2023/04/21 02:06:36;;;;;;;25.92;23.33;;;;;;;9.51;83.09;99856.31;10365114;28;20155;-65
2023/04/21 02:11:37;;;;;;;26.85;24.15;;;;;;;9.53;83.26;99862.38;10364140;28;20064;-67
2023/04/21 02:16:39;;;;;;;25.83;23.08;;;;;;;9.35;83.24;99850.56;10368537;28;20045;-66
2023/04/21 02:21:41;;;;;;;25.30;22.75;;;;;;;9.51;83.27;99861.63;10366470;28;20104;-66
2023/04/21 02:26:43;;;;;;;27.20;24.42;;;;;;;9.44;83.35;99852.47;10364980;28;20060;-65
2023/04/21 02:31:44;;;;;;;26.30;23.60;;;;;;;9.50;83.60;99873.25;10364250;28;20556;-66
2023/04/21 02:37:01;;;;;;;26.25;23.73;;;;;;;9.41;83.58;99866.00;10362672;28;20052;-65
2023/04/21 02:42:03;;;;;;;26.48;23.83;;;;;;;9.36;83.96;99868.22;10364034;28;20053;-67
2023/04/21 02:47:04;;;;;;;26.80;24.08;;;;;;;9.44;83.96;99881.69;10362252;28;20057;-66
2023/04/21 02:52:05;;;;;;;26.83;24.15;;;;;;;9.46;84.06;99874.47;10361101;28;20045;-67
2023/04/21 02:57:07;;;;;;;26.60;23.92;;;;;;;9.38;84.18;99863.59;10367688;28;20053;-67
2023/04/21 03:02:08;;;;;;;27.27;24.42;;;;;;;9.31;84.57;99859.78;10365032;28;20049;-66
2023/04/21 03:07:12;;;;;;;26.80;23.92;;;;;;;9.34;84.68;99868.34;10363956;28;20142;-67
2023/04/21 03:12:14;;;;;;;26.10;23.35;;;;;;;9.31;84.70;99854.47;10362581;28;20073;-66
2023/04/21 03:17:16;;;;;;;24.77;22.20;;;;;;;9.40;84.51;99876.75;10362952;28;20069;-66
2023/04/21 03:22:17;;;;;;;25.48;22.95;;;;;;;9.32;84.37;99864.13;10363027;28;20057;-66
2023/04/21 03:27:19;;;;;;;23.10;20.70;;;;;;;9.41;84.27;99881.13;10361013;28;20057;-66
2023/04/21 03:32:20;;;;;;;24.95;22.55;;;;;;;9.37;84.72;99885.84;10362618;28;20565;-66
2023/04/21 03:37:22;;;;;;;23.42;21.05;;;;;;;9.30;84.84;99872.19;10361829;28;20061;-67
2023/04/21 03:42:24;;;;;;;23.08;20.77;;;;;;;9.31;84.93;99865.09;10363599;28;20135;-67
2023/04/21 03:47:26;;;;;;;21.75;19.75;;;;;;;9.31;84.16;99859.78;10356237;28;20276;-66
2023/04/21 03:52:27;;;;;;;22.27;20.08;;;;;;;9.36;84.47;99857.59;10360433;28;21050;-64
2023/04/21 03:57:28;;;;;;;21.08;19.08;;;;;;;9.34;84.18;99859.53;10363148;28;20041;-66
2023/04/21 04:02:30;;;;;;;21.77;19.58;;;;;;;9.35;83.69;99853.22;10361937;28;20063;-66
2023/04/21 04:07:32;;;;;;;22.88;20.52;;;;;;;9.32;83.93;99872.06;10362139;28;20059;-65
2023/04/21 04:12:33;;;;;;;21.98;19.77;;;;;;;9.29;84.48;99880.28;10361012;28;20045;-66
2023/04/21 04:17:34;;;;;;;21.85;19.65;;;;;;;9.17;84.59;99853.78;10354457;28;20053;-66
2023/04/21 04:22:36;;;;;;;21.45;19.45;;;;;;;9.23;84.91;99872.84;10359469;28;20053;-65
2023/04/21 04:27:37;;;;;;;21.02;19.02;;;;;;;9.15;84.48;99863.66;10367763;28;20053;-65
2023/04/21 04:32:40;;;;;;;22.45;20.20;;;;;;;9.24;84.95;99874.53;10369991;28;20968;-71
2023/04/21 04:37:41;;;;;;;21.25;19.25;;;;;;;9.27;85.30;99872.44;10379047;28;20910;-67
2023/04/21 04:42:45;;;;;;;21.75;19.60;;;;;;;9.30;85.27;99869.53;10373284;28;20052;-68
2023/04/21 04:47:48;;;;;;;21.23;19.17;;;;;;;9.34;85.08;99859.53;10362705;28;20049;-67
2023/04/21 04:52:50;;;;;;;22.63;20.33;;;;;;;9.34;85.30;99855.06;10365685;28;20057;-68
2023/04/21 04:57:51;;;;;;;23.40;21.00;;;;;;;9.38;85.80;99845.88;10366189;28;20045;-67
2023/04/21 05:02:53;;;;;;;24.08;21.67;;;;;;;9.38;85.89;99859.16;10366160;28;20064;-65
2023/04/21 05:07:56;;;;;;;25.00;22.50;;;;;;;9.42;86.20;99867.72;10343533;28;20045;-66
2023/04/21 05:12:57;;;;;;;25.20;22.67;;;;;;;9.38;86.66;99867.13;10346724;28;20297;-66
2023/04/21 05:17:59;;;;;;;25.67;23.10;;;;;;;9.47;86.43;99864.66;10340267;28;20049;-66
2023/04/21 05:23:00;;;;;;;24.70;22.13;;;;;;;9.50;86.53;99859.97;10353668;28;20148;-67
2023/04/21 05:28:02;;;;;;;27.55;24.73;;;;;;;9.59;86.63;99874.28;10359226;28;20056;-67
2023/04/21 05:33:03;;;;;;;25.30;22.70;;;;;;;9.64;86.65;99865.97;10367010;28;20061;-66
2023/04/21 05:38:05;;;;;;;26.17;23.48;;;;;;;9.59;86.75;99858.34;10347267;28;20053;-67
2023/04/21 05:43:06;;;;;;;24.63;22.02;;;;;;;9.71;86.94;99877.75;10347547;28;20055;-66
2023/04/21 05:48:08;;;;;;;24.95;22.35;;;;;;;9.71;86.82;99867.97;10342334;28;20118;-67
2023/04/21 05:53:13;;;;;;;24.05;21.40;;;;;;;9.80;86.97;99862.84;10342681;28;20053;-65
2023/04/21 05:58:14;;;;;;;24.70;22.30;;;;;;;9.93;87.09;99870.66;10344424;28;20088;-67
2023/04/21 06:03:16;;;;;;;24.88;22.35;;;;;;;9.98;86.52;99869.28;10342702;28;20076;-66
2023/04/21 06:08:17;;;;;;;23.30;20.80;;;;;;;10.06;86.54;99876.63;10343938;28;20065;-67
2023/04/21 06:13:19;;;;;;;23.15;20.65;;;;;;;10.04;86.95;99873.25;10344746;28;20061;-69
2023/04/21 06:18:21;;;;;;;25.90;23.17;;;;;;;10.17;87.01;99870.41;10342835;28;20064;-66
2023/04/21 06:23:22;;;;;;;25.73;23.02;;;;;;;10.27;86.80;99864.16;10347468;28;20053;-67
2023/04/21 06:28:24;;;;;;;23.45;21.05;;;;;;;10.42;86.26;99877.16;10331211;28;20440;-66
2023/04/21 06:33:26;;;;;;;23.45;21.02;;;;;;;10.48;86.09;99855.34;10337073;28;20068;-68
2023/04/21 06:38:27;;;;;;;22.98;20.58;;;;;;;10.62;86.02;99875.44;10344036;28;20060;-67
2023/04/21 06:43:28;;;;;;;25.63;22.92;;;;;;;10.63;86.83;99876.25;10343321;28;20060;-71
2023/04/21 06:48:30;;;;;;;29.20;22.13;;;;;;;10.71;86.33;99865.81;10337438;28;20057;-70
2023/04/21 06:53:32;;;;;;;22.55;20.27;;;;;;;10.84;86.21;99876.22;10344934;28;20065;-67
2023/04/21 06:58:33;;;;;;;23.05;20.75;;;;;;;11.01;86.51;99862.25;10349332;28;20499;-69
2023/04/21 07:03:34;;;;;;;23.95;21.00;;;;;;;11.20;85.93;99869.47;10371765;28;20160;-69
2023/04/21 07:08:46;;;;;;;25.15;22.55;;;;;;;11.36;85.43;99870.75;10312279;28;21267;-55
2023/04/21 07:13:47;;;;;;;21.55;19.35;;;;;;;11.47;83.40;99867.97;10291836;28;20074;-54
2023/04/21 07:18:50;;;;;;;20.45;18.42;;;;;;;11.35;84.00;99869.91;10282957;28;20057;-55
2023/04/21 07:23:51;;;;;;;21.67;19.48;;;;;;;11.37;83.74;99867.13;10299510;28;20801;-55
2023/04/21 07:28:54;;;;;;;21.17;18.95;;;;;;;11.37;84.26;99869.78;10288746;28;20050;-58
2023/04/21 07:33:55;;;;;;;22.35;20.08;;;;;;;11.42;84.57;99862.19;10288765;28;20042;-56
2023/04/21 07:38:57;;;;;;;21.27;18.98;;;;;;;11.66;83.37;99878.66;10294549;28;20141;-56
2023/04/21 07:43:59;;;;;;;21.88;19.45;;;;;;;11.79;82.82;99881.03;10298321;28;20050;-55
2023/04/21 07:49:00;;;;;;;23.05;20.70;;;;;;;11.91;82.50;99875.56;10285189;28;20133;-56
2023/04/21 07:54:04;;;;;;;22.45;19.15;;;;;;;11.99;82.05;99871.22;10297675;28;20641;-56
2023/04/21 07:59:06;;;;;;;22.33;20.05;;;;;;;11.89;81.92;99857.03;10301569;28;21117;-55
2023/04/21 08:04:08;;;;;;;21.42;19.13;;;;;;;12.09;81.73;99871.22;10290673;28;20808;-55
2023/04/21 08:09:10;;;;;;;21.10;18.98;;;;;;;12.21;82.04;99855.88;10287757;28;20175;-56
2023/04/21 08:14:13;;;;;;;20.20;18.17;;;;;;;12.30;81.13;99852.34;10287016;28;20061;-59
2023/04/21 08:19:15;;;;;;;21.77;19.65;;;;;;;12.43;81.76;99854.72;10258397;28;20855;-55
2023/04/21 08:24:17;;;;;;;20.42;18.33;;;;;;;12.58;81.26;99864.91;10244135;28;20104;-55
2023/04/21 08:29:19;;;;;;;21.05;18.88;;;;;;;12.68;80.12;99861.19;10266216;28;20059;-55
2023/04/21 08:34:21;;;;;;;21.25;18.90;;;;;;;12.73;80.30;99869.63;10258491;28;20093;-57
2023/04/21 08:39:26;;;;;;;19.77;17.77;;;;;;;12.88;80.24;99861.13;10257639;28;20050;-56
2023/04/21 08:44:27;;;;;;;21.67;19.58;;;;;;;13.08;78.58;99853.84;10266558;28;20042;-55
2023/04/21 08:49:30;;;;;;;20.90;18.95;;;;;;;13.26;76.94;99856.56;10262043;28;20148;-55
2023/04/21 08:54:35;;;;;;;21.52;19.42;;;;;;;13.23;75.31;99849.69;10268189;28;20047;-54
2023/04/21 08:59:36;;;;;;;22.30;19.90;;;;;;;13.20;75.51;99863.34;10272644;28;20197;-55
2023/04/21 09:04:46;;;;;;;22.88;19.80;;;;;;;13.35;75.08;99865.53;10254150;28;20135;-55
2023/04/21 09:09:55;;;;;;;22.33;19.95;;;;;;;13.23;76.73;99824.78;10273346;28;20200;-55
2023/04/21 09:14:57;;;;;;;20.10;17.48;;;;;;;13.40;76.52;99839.19;10254907;28;20137;-56
2023/04/21 09:20:18;;;;;;;20.95;18.85;;;;;;;13.63;76.48;99852.97;10260160;28;20502;-55
2023/04/21 09:25:21;;;;;;;20.05;18.13;;;;;;;13.64;75.64;99849.28;10262542;28;20136;-55
2023/04/21 09:30:23;;;;;;;20.95;18.77;;;;;;;13.65;75.69;99860.84;10260640;28;20085;-54
2023/04/21 09:35:32;;;;;;;20.38;18.30;;;;;;;13.66;75.87;99868.69;10259875;28;20139;-54
2023/04/21 09:40:34;;;;;;;19.55;17.42;;;;;;;13.82;76.15;99867.16;10250810;28;20053;-55
2023/04/21 09:45:37;;;;;;;20.48;18.55;;;;;;;13.88;74.30;99874.56;10274814;28;20438;-56
2023/04/21 09:50:41;;;;;;;21.05;17.88;;;;;;;13.84;73.95;99846.44;10254000;28;20798;-57
2023/04/21 09:56:03;;;;;;;18.98;17.08;;;;;;;13.96;74.37;99853.22;10245060;28;20057;-54
2023/04/21 10:01:05;;;;;;;18.67;16.70;;;;;;;14.07;74.43;99863.69;10277002;28;20066;-55
2023/04/21 10:06:07;;;;;;;19.02;17.17;;;;;;;14.37;73.33;99844.66;10257389;28;20062;-56
2023/04/21 10:11:10;;;;;;;19.55;17.52;;;;;;;14.52;71.35;99839.53;10255915;28;20050;-55
2023/04/21 10:16:16;;;;;;;18.02;16.13;;;;;;;14.99;71.10;99833.75;10258601;28;20054;-57
2023/04/21 10:21:20;;;;;;;17.33;15.57;;;;;;;15.62;68.64;99834.22;10218227;28;20066;-60
2023/04/21 10:26:25;;;;;;;17.90;16.10;;;;;;;16.40;65.22;99824.78;10215317;28;20399;-56
2023/04/21 10:31:48;;;;;;;17.52;15.73;;;;;;;16.22;64.87;99815.06;10213728;28;20858;-56
2023/04/21 10:36:55;;;;;;;18.52;16.73;;;;;;;15.89;66.01;99825.03;10254111;28;20522;-57
2023/04/21 10:42:21;;;;;;;16.90;15.02;;;;;;;15.73;66.58;99825.81;10243787;28;20486;-57
2023/04/21 10:47:27;;;;;;;17.20;15.57;;;;;;;15.58;66.21;99812.22;10271172;28;20140;-56
2023/04/21 10:52:32;;;;;;;16.63;15.00;;;;;;;15.70;65.99;99810.91;10249370;28;20102;-56
2023/04/21 10:57:35;;;;;;;16.13;14.48;;;;;;;15.62;65.59;99818.13;10256021;28;20061;-56
2023/04/21 11:02:37;;;;;;;16.90;15.30;;;;;;;15.45;66.10;99806.53;10257083;28;20132;-55
2023/04/21 11:07:42;;;;;;;18.13;15.98;;;;;;;15.37;67.68;99802.84;10252414;28;20046;-56
2023/04/21 11:12:44;;;;;;;17.25;15.55;;;;;;;15.58;66.65;99788.09;10257451;28;20055;-56
2023/04/21 11:17:46;;;;;;;17.60;15.73;;;;;;;15.74;66.58;99792.63;10257685;28;20054;-55
2023/04/21 11:22:52;;;;;;;18.02;16.20;;;;;;;15.93;65.47;99787.94;10255323;28;20061;-55
2023/04/21 11:27:55;;;;;;;16.00;14.45;;;;;;;15.85;62.46;99752.06;10255650;28;20691;-55
2023/04/21 11:32:57;;;;;;;15.52;13.93;;;;;;;16.27;63.19;99787.69;10260539;28;20053;-56
2023/04/21 11:38:04;;;;;;;16.35;14.75;;;;;;;16.23;63.56;99775.66;10258461;28;20053;-57
2023/04/21 11:43:05;;;;;;;15.90;14.40;;;;;;;16.04;64.10;99776.84;10261309;28;20050;-57
2023/04/21 11:48:16;;;;;;;15.05;13.55;;;;;;;16.01;61.56;99775.34;10255064;28;20050;-56
2023/04/21 11:53:18;;;;;;;13.57;12.27;;;;;;;17.21;57.83;99757.41;10274420;28;20518;-57
2023/04/21 11:58:20;;;;;;;14.50;13.20;;;;;;;17.04;57.84;99767.41;10259005;28;20869;-58
2023/04/21 12:03:22;;;;;;;13.60;12.40;;;;;;;16.80;58.15;99763.84;10265715;28;20062;-58
2023/04/21 12:08:28;;;;;;;14.07;12.75;;;;;;;16.62;59.93;99739.91;10265616;28;20059;-57
2023/04/21 12:13:30;;;;;;;15.57;13.25;;;;;;;17.18;57.60;99753.22;10266479;28;20871;-56
2023/04/21 12:18:34;;;;;;;13.65;12.30;;;;;;;17.49;56.86;99749.63;10262019;28;20054;-56
2023/04/21 12:23:38;;;;;;;13.50;12.23;;;;;;;17.41;56.83;99738.94;10262042;28;21623;-56
2023/04/21 12:28:39;;;;;;;13.05;11.65;;;;;;;17.39;56.86;99735.59;10262504;28;20150;-56
2023/04/21 12:33:41;;;;;;;13.05;11.77;;;;;;;17.30;57.16;99737.50;10247697;28;20082;-57
2023/04/21 12:38:43;;;;;;;12.75;11.18;;;;;;;17.11;56.53;99728.03;10264502;28;20167;-56
2023/04/21 12:43:44;;;;;;;13.57;12.27;;;;;;;17.16;56.49;99731.06;10257797;28;20050;-56
2023/04/21 12:48:47;;;;;;;14.30;12.48;;;;;;;17.48;56.21;99734.50;10263350;28;20079;-56
2023/04/21 12:53:49;;;;;;;14.10;12.38;;;;;;;17.99;55.10;99707.78;10257534;28;20543;-57
2023/04/21 12:58:51;;;;;;;14.85;13.18;;;;;;;18.29;54.45;99713.16;10259394;28;20050;-57
2023/04/21 13:03:53;;;;;;;12.02;10.82;;;;;;;18.53;53.69;99705.81;10259680;28;20181;-57
2023/04/21 13:08:55;;;;;;;11.77;10.60;;;;;;;18.76;52.97;99699.44;10258924;28;20062;-57
2023/04/21 13:13:57;;;;;;;11.73;10.73;;;;;;;18.80;52.02;99700.72;10265805;28;20047;-60
2023/04/21 13:18:58;;;;;;;10.10;9.25;;;;;;;18.71;51.95;99681.94;10267902;28;20621;-58
2023/04/21 13:24:01;;;;;;;10.32;9.43;;;;;;;18.85;50.67;99676.69;10260389;28;20057;-57
2023/04/21 13:29:03;;;;;;;9.45;8.52;;;;;;;18.90;50.45;99663.53;10256472;28;20133;-58
2023/04/21 13:34:04;;;;;;;9.50;8.75;;;;;;;18.92;50.97;99658.78;10261457;28;20502;-57
2023/04/21 13:39:09;;;;;;;9.13;8.23;;;;;;;18.84;50.05;99650.75;10258270;28;20156;-57
2023/04/21 13:44:11;;;;;;;8.38;7.68;;;;;;;18.86;49.58;99640.66;10260250;28;20066;-58
2023/04/21 13:49:12;;;;;;;8.10;7.25;;;;;;;18.83;50.44;99627.53;10254856;28;20069;-57
2023/04/21 13:54:14;;;;;;;9.27;8.48;;;;;;;18.84;49.99;99632.75;10256599;28;20045;-57
2023/04/21 13:59:16;;;;;;;8.15;7.35;;;;;;;18.92;49.44;99621.00;10264931;28;20062;-58
2023/04/21 14:04:19;;;;;;;9.25;8.30;;;;;;;18.80;49.23;99600.97;10259064;28;20054;-58
2023/04/21 14:09:21;;;;;;;8.50;7.70;;;;;;;18.95;49.72;99611.72;10259998;28;20058;-57
2023/04/21 14:14:23;;;;;;;8.93;8.13;;;;;;;18.85;48.94;99596.66;10265397;28;20050;-56
2023/04/21 14:19:39;;;;;;;7.75;6.90;;;;;;;18.87;49.58;99583.84;10261536;28;20070;-57
2023/04/21 14:24:41;;;;;;;8.73;7.90;;;;;;;18.86;49.28;99579.47;10255375;28;20055;-58
2023/04/21 14:29:42;;;;;;;8.65;7.85;;;;;;;18.82;50.19;99563.84;10245642;28;20050;-57
2023/04/21 14:34:44;;;;;;;8.10;7.38;;;;;;;18.69;48.24;99548.38;10254980;28;20049;-57
2023/04/21 14:39:45;;;;;;;8.73;7.93;;;;;;;18.63;49.32;99547.31;10253607;28;20062;-58
2023/04/21 14:44:47;;;;;;;7.63;6.25;;;;;;;18.60;50.46;99542.31;10258993;28;20077;-56
2023/04/21 14:49:51;;;;;;;7.38;6.68;;;;;;;18.55;49.85;99537.50;10262909;28;20058;-61
2023/04/21 14:54:55;;;;;;;7.85;7.05;;;;;;;18.47;50.55;99532.22;10256211;28;20652;-56
2023/04/21 14:59:57;;;;;;;7.82;7.13;;;;;;;18.34;50.16;99514.06;10256207;28;20058;-58
2023/04/21 15:04:58;;;;;;;7.53;6.93;;;;;;;18.37;51.19;99508.31;10250624;28;20710;-58
2023/04/21 15:10:00;;;;;;;7.80;7.00;;;;;;;18.38;50.99;99509.97;10254081;28;20058;-57
2023/04/21 15:15:02;;;;;;;7.45;6.75;;;;;;;18.30;50.47;99507.41;10248439;28;20069;-58
2023/04/21 15:20:05;;;;;;;8.07;7.40;;;;;;;18.24;51.08;99489.31;10249733;28;20770;-59
2023/04/21 15:25:06;;;;;;;8.15;7.35;;;;;;;18.25;50.96;99493.66;10248835;28;20058;-59
2023/04/21 15:30:09;;;;;;;7.95;7.05;;;;;;;18.27;50.93;99475.47;10261254;28;20050;-58
2023/04/21 15:35:10;;;;;;;8.40;6.93;;;;;;;18.32;51.40;99478.41;10263861;28;20533;-59
2023/04/21 15:40:12;;;;;;;8.15;7.30;;;;;;;18.19;50.64;99457.59;10265141;28;20539;-59
2023/04/21 15:45:16;;;;;;;7.15;6.45;;;;;;;18.23;51.10;99470.66;10266679;28;20108;-59
2023/04/21 15:50:18;;;;;;;8.40;7.60;;;;;;;18.15;51.14;99461.69;10262168;28;20085;-59
2023/04/21 15:55:20;;;;;;;9.05;7.05;;;;;;;18.17;53.54;99453.41;10258964;28;20058;-55
2023/04/21 16:00:22;;;;;;;6.68;6.07;;;;;;;18.23;51.92;99449.94;10259367;28;20050;-52
2023/04/21 16:05:23;;;;;;;10.05;7.22;;;;;;;18.35;52.58;99456.47;10258579;28;20156;-51
2023/04/21 16:10:30;;;;;;;7.25;6.57;;;;;;;18.28;51.23;99425.94;10265994;28;20054;-60
2023/04/21 16:15:32;;;;;;;7.13;6.43;;;;;;;18.28;51.39;99415.16;10269722;28;20686;-58
2023/04/21 16:20:35;;;;;;;7.13;6.47;;;;;;;18.27;52.01;99410.81;10256506;28;20058;-58
2023/04/21 16:25:37;;;;;;;7.00;6.40;;;;;;;18.25;51.40;99396.69;10252346;28;20055;-58
2023/04/21 16:30:41;;;;;;;6.50;5.93;;;;;;;18.21;51.46;99381.97;10252894;28;20058;-59
2023/04/21 16:35:44;;;;;;;6.57;6.00;;;;;;;18.22;51.22;99402.47;10258748;28;20049;-58
2023/04/21 16:40:45;;;;;;;6.85;5.90;;;;;;;18.25;51.27;99402.09;10258364;28;20050;-58
2023/04/21 16:45:47;;;;;;;9.23;6.63;;;;;;;18.26;51.30;99397.56;10270328;28;20046;-58
2023/04/21 16:50:48;;;;;;;6.70;6.10;;;;;;;18.23;52.04;99398.75;10270093;28;20050;-58
2023/04/21 16:55:50;;;;;;;6.65;6.07;;;;;;;18.19;51.68;99392.09;10265303;28;20057;-58
2023/04/21 17:00:52;;;;;;;6.15;5.65;;;;;;;18.18;51.56;99387.75;10264397;28;20128;-57
2023/04/21 17:05:53;;;;;;;6.20;5.60;;;;;;;18.17;51.78;99392.28;10275798;28;20046;-58
2023/04/21 17:10:55;;;;;;;6.32;5.72;;;;;;;18.13;51.52;99398.25;10269995;28;20656;-58
2023/04/21 17:15:58;;;;;;;6.35;5.03;;;;;;;18.12;50.58;99410.03;10264494;28;20046;-59
2023/04/21 17:21:00;;;;;;;6.53;4.88;;;;;;;18.09;50.88;99413.13;10265301;28;20057;-59
2023/04/21 17:26:03;;;;;;;6.00;5.07;;;;;;;18.07;50.83;99421.41;10261743;28;20099;-57
2023/04/21 17:31:05;;;;;;;4.63;4.22;;;;;;;17.97;51.11;99405.56;10261269;28;20133;-58
2023/04/21 17:36:15;;;;;;;5.40;4.90;;;;;;;18.00;50.90;99432.13;10253127;28;20562;-58
2023/04/21 17:41:17;;;;;;;5.47;4.53;;;;;;;17.93;50.77;99422.31;10259358;28;20050;-58
2023/04/21 17:46:19;;;;;;;4.80;4.40;;;;;;;17.90;50.51;99431.59;10260160;28;20280;-58
2023/04/21 17:51:24;;;;;;;4.70;4.25;;;;;;;17.88;50.85;99430.06;10266086;28;20050;-57
2023/04/21 17:56:29;;;;;;;5.70;4.50;;;;;;;17.67;51.82;99396.75;10254386;28;20057;-59
2023/04/21 18:01:30;;;;;;;7.13;5.00;;;;;;;17.74;51.59;99415.66;10265959;28;20157;-58
2023/04/21 18:06:34;;;;;;;4.78;4.28;;;;;;;17.81;52.08;99455.06;10255494;28;20059;-59
2023/04/21 18:11:37;;;;;;;4.35;2.50;;;;;;;17.63;47.39;99460.88;10256578;28;20046;-59
2023/04/21 18:16:39;;;;;;;4.60;2.55;;;;;;;17.35;46.09;99441.91;10269019;28;20053;-59
2023/04/21 18:21:40;;;;;;;2.38;1.92;;;;;;;17.17;46.81;99444.97;10271331;28;20050;-57
2023/04/21 18:26:42;;;;;;;1.88;1.52;;;;;;;16.99;46.25;99452.59;10263124;28;20062;-58
2023/04/21 18:31:44;;;;;;;2.50;1.58;;;;;;;16.89;46.58;99448.31;10254005;28;20796;-58
2023/04/21 18:36:47;;;;;;;3.78;1.40;;;;;;;16.82;47.39;99443.84;10261417;28;20049;-59
2023/04/21 18:41:48;;;;;;;2.00;1.40;;;;;;;16.78;48.16;99444.19;10255932;28;20057;-58
2023/04/21 18:46:52;;;;;;;1.90;1.60;;;;;;;16.68;48.70;99440.09;10258909;28;20058;-59
2023/04/21 18:51:54;;;;;;;3.65;2.17;;;;;;;16.69;49.64;99450.66;10257762;28;20703;-58
2023/04/21 18:56:56;;;;;;;2.50;2.08;;;;;;;16.64;49.64;99460.31;10259296;28;20053;-60
2023/04/21 19:01:59;;;;;;;3.08;2.63;;;;;;;16.54;51.12;99469.47;10249798;28;21327;-59
2023/04/21 19:07:00;;;;;;;3.42;2.78;;;;;;;16.43;52.51;99462.63;10256331;28;20058;-59
2023/04/21 19:12:03;;;;;;;4.15;3.17;;;;;;;16.42;53.33;99465.50;10250415;28;20148;-59
2023/04/21 19:17:05;;;;;;;2.85;2.50;;;;;;;16.31;53.83;99455.22;10268373;28;20073;-61
2023/04/21 19:22:06;;;;;;;3.75;3.30;;;;;;;16.35;54.30;99456.50;10260977;28;21537;-60
2023/04/21 19:27:09;;;;;;;5.82;5.22;;;;;;;16.33;54.93;99445.13;10251692;28;20050;-59
2023/04/21 19:32:11;;;;;;;3.78;3.38;;;;;;;16.33;55.63;99461.22;10247056;28;20050;-58
2023/04/21 19:37:13;;;;;;;4.38;3.83;;;;;;;16.31;55.54;99465.94;10264309;28;20042;-58
2023/04/21 19:42:14;;;;;;;4.32;3.92;;;;;;;16.29;55.64;99466.13;10263865;28;20140;-57
2023/04/21 19:47:18;;;;;;;6.88;5.43;;;;;;;16.17;56.83;99454.97;10256320;28;20703;-57
2023/04/21 19:52:20;;;;;;;4.75;4.25;;;;;;;16.21;56.45;99464.34;10252349;28;20056;-58
2023/04/21 19:57:22;;;;;;;5.03;4.63;;;;;;;16.23;57.43;99483.78;10254178;28;20058;-57
2023/04/21 20:02:23;;;;;;;4.55;3.80;;;;;;;16.15;56.84;99475.78;10258052;28;20054;-60
2023/04/21 20:07:25;;;;;;;4.88;4.43;;;;;;;16.13;57.73;99477.81;10253492;28;20049;-58
2023/04/21 20:12:26;;;;;;;5.18;4.45;;;;;;;16.07;58.79;99475.84;10253042;28;20062;-58
2023/04/21 20:17:30;;;;;;;5.25;4.70;;;;;;;15.98;57.94;99487.66;10264491;28;20073;-58
2023/04/21 20:22:32;;;;;;;7.85;5.85;;;;;;;15.86;58.70;99482.69;10263985;28;20072;-58
2023/04/21 20:27:33;;;;;;;6.68;5.82;;;;;;;15.79;58.24;99530.00;10266641;28;20057;-57
2023/04/21 20:32:35;;;;;;;10.98;5.43;;;;;;;15.69;57.95;99542.78;10251655;28;20053;-58
2023/04/21 20:37:37;;;;;;;6.28;4.60;;;;;;;15.56;58.43;99521.88;10261398;28;20603;-58
2023/04/21 20:42:38;;;;;;;4.45;3.80;;;;;;;15.52;58.45;99526.75;10259755;28;20057;-58
2023/04/21 20:47:39;;;;;;;4.50;4.05;;;;;;;15.47;58.33;99531.78;10260457;28;20850;-57
2023/04/21 20:52:41;;;;;;;7.55;4.65;;;;;;;15.38;58.54;99497.97;10265906;28;20945;-65
2023/04/21 20:57:43;;;;;;;8.13;4.75;;;;;;;15.40;59.21;99501.31;10277291;28;20077;-58
2023/04/21 21:02:44;;;;;;;4.88;3.80;;;;;;;15.40;59.13;99501.31;10256614;28;21028;-57
2023/04/21 21:07:47;;;;;;;4.63;3.47;;;;;;;15.35;59.65;99496.47;10257134;28;20700;-58
2023/04/21 21:12:48;;;;;;;4.45;4.05;;;;;;;15.31;59.52;99500.53;10263373;28;20058;-58
2023/04/21 21:17:49;;;;;;;4.95;4.30;;;;;;;15.28;59.37;99500.88;10267159;28;20443;-57
2023/04/21 21:22:51;;;;;;;5.47;4.57;;;;;;;15.17;59.58;99477.91;10260803;28;20480;-58
2023/04/21 21:27:52;;;;;;;5.70;4.85;;;;;;;15.13;59.19;99476.63;10265895;28;20050;-59
2023/04/21 21:32:54;;;;;;;5.45;4.90;;;;;;;15.16;59.90;99503.06;10254535;28;20558;-59
2023/04/21 21:37:56;;;;;;;4.95;4.40;;;;;;;15.05;59.73;99492.69;10263862;28;20070;-59
2023/04/21 21:42:57;;;;;;;5.40;4.90;;;;;;;15.09;59.61;99496.72;10261827;28;20054;-60
2023/04/21 21:48:02;;;;;;;;;;;;;;;15.13;59.32;99499.88;10264424;28;20197;-59
2023/04/21 21:53:03;;;;;;;6.30;4.60;;;;;;;15.11;59.52;99500.06;10261417;28;20029;-59
2023/04/21 21:58:05;;;;;;;6.75;5.60;;;;;;;14.82;59.70;99474.66;10269510;28;20535;-59
2023/04/21 22:03:07;;;;;;;5.55;5.05;;;;;;;15.02;60.19;99501.09;10263597;28;20492;-59
2023/04/21 22:08:11;;;;;;;6.57;5.72;;;;;;;14.99;60.22;99507.63;10255767;28;20477;-56
2023/04/21 22:13:12;;;;;;;5.93;5.15;;;;;;;14.89;60.55;99501.59;10257833;28;20069;-57
2023/04/21 22:18:17;;;;;;;5.72;5.18;;;;;;;14.92;60.57;99505.78;10262928;28;20050;-58
2023/04/21 22:23:20;;;;;;;6.20;5.60;;;;;;;14.82;61.18;99514.84;10262289;28;20082;-58
2023/04/21 22:28:21;;;;;;;5.75;5.20;;;;;;;14.77;61.53;99502.97;10258784;28;20054;-57
2023/04/21 22:33:23;;;;;;;6.50;4.75;;;;;;;14.74;61.82;99503.31;10260988;28;20054;-58
2023/04/21 22:38:24;;;;;;;6.63;5.85;;;;;;;14.76;62.37;99518.22;10255449;28;20054;-57
2023/04/21 22:43:26;;;;;;;6.70;6.00;;;;;;;14.77;62.31;99517.22;10260020;28;20474;-57
2023/04/21 22:48:28;;;;;;;7.85;5.95;;;;;;;14.74;62.85;99514.88;10261553;28;20740;-58
2023/04/21 22:53:30;;;;;;;7.30;5.97;;;;;;;14.68;62.80;99520.88;10266222;28;20418;-59
2023/04/21 22:58:31;;;;;;;6.20;5.57;;;;;;;14.73;62.97;99533.78;10265708;28;20054;-58
2023/04/21 23:03:33;;;;;;;9.27;6.53;;;;;;;14.65;63.07;99529.25;10275653;28;20053;-60
2023/04/21 23:08:37;;;;;;;7.60;5.88;;;;;;;14.64;63.04;99538.31;10255888;28;20046;-58
2023/04/21 23:13:39;;;;;;;5.78;5.18;;;;;;;14.56;62.66;99527.53;10257791;28;20431;-58